Time;durP1;ratioP1;P1;durP2;ratioP2;P2;SDS_P1;SDS_P2;PMS_P1;PMS_P2;Temp;Humidity;BMP_temperature;BMP_pressure;BME280_temperature;BME280_humidity;BME280_pressure;Samples;Min_cycle;Max_cycle;Signal;HPM_P1;HPM_P2
2023/01/24 00:02:24;;;;;;;0.82;0.70;;;2.20;99.90;;;;;;5055671;28;20056;-87
2023/01/24 00:04:49;;;;;;;1.42;1.33;;;2.20;99.90;;;;;;5055531;28;20124;-86
2023/01/24 00:07:15;;;;;;;0.88;0.32;;;2.20;99.90;;;;;;5056040;28;20045;-86
2023/01/24 00:09:40;;;;;;;0.80;0.80;;;2.20;99.90;;;;;;5055867;28;20100;-86
2023/01/24 00:12:06;;;;;;;0.13;0.13;;;2.20;99.90;;;;;;5054780;28;20048;-86
2023/01/24 00:14:32;;;;;;;0.40;0.40;;;2.20;99.90;;;;;;5055300;28;20061;-87
2023/01/24 00:16:57;;;;;;;0.43;0.43;;;2.20;99.90;;;;;;5055783;28;20044;-86
2023/01/24 00:19:23;;;;;;;1.45;1.35;;;2.20;99.90;;;;;;5055103;28;20043;-86
2023/01/24 00:21:48;;;;;;;0.93;0.85;;;2.20;99.90;;;;;;5055552;28;20048;-86
2023/01/24 00:24:14;;;;;;;0.98;0.82;;;2.20;99.90;;;;;;5055004;28;20041;-87
2023/01/24 00:26:39;;;;;;;0.30;0.30;;;2.20;99.90;;;;;;5054674;28;20124;-86
2023/01/24 00:29:05;;;;;;;2.95;1.15;;;2.20;99.90;;;;;;5053625;28;20506;-86
2023/01/24 00:31:31;;;;;;;0.73;0.73;;;2.20;99.90;;;;;;5054313;28;20047;-86
2023/01/24 00:33:56;;;;;;;1.10;0.70;;;2.20;99.90;;;;;;5054611;28;20112;-86
2023/01/24 00:36:22;;;;;;;1.02;0.95;;;2.20;99.90;;;;;;5054399;28;20598;-87
2023/01/24 00:38:48;;;;;;;2.72;2.47;;;2.20;99.90;;;;;;5054170;28;20045;-87
2023/01/24 00:41:13;;;;;;;0.73;0.73;;;2.20;99.90;;;;;;5054221;28;20394;-86
2023/01/24 00:43:39;;;;;;;2.38;2.17;;;2.20;99.90;;;;;;5054316;28;20127;-86
2023/01/24 00:46:06;;;;;;;3.13;1.10;;;2.20;99.90;;;;;;5054090;28;20053;-86
2023/01/24 00:48:33;;;;;;;3.30;0.90;;;2.20;99.90;;;;;;5053693;28;20080;-86
2023/01/24 00:50:59;;;;;;;0.30;0.30;;;2.20;99.90;;;;;;5054250;28;20056;-87
2023/01/24 00:53:26;;;;;;;0.30;0.30;;;2.20;99.90;;;;;;5054103;28;20048;-86
2023/01/24 00:55:54;;;;;;;0.57;0.57;;;2.20;99.90;;;;;;5054239;28;20049;-86
2023/01/24 00:58:21;;;;;;;0.47;0.47;;;2.20;99.90;;;;;;5054328;28;21029;-87
2023/01/24 01:00:46;;;;;;;0.47;0.47;;;2.20;99.90;;;;;;5054677;28;20044;-86
2023/01/24 01:03:18;;;;;;;0.20;0.20;;;2.20;99.90;;;;;;5054661;28;20067;-87
2023/01/24 01:05:44;;;;;;;0.60;0.60;;;2.10;99.90;;;;;;5054251;28;20044;-87
2023/01/24 01:08:10;;;;;;;1.17;1.08;;;2.20;99.90;;;;;;5054243;28;20041;-87
2023/01/24 01:10:36;;;;;;;0.65;0.57;;;2.20;99.90;;;;;;5052871;28;20387;-86
2023/01/24 01:13:02;;;;;;;0.65;0.65;;;2.20;99.90;;;;;;5054239;28;20052;-87
2023/01/24 01:15:32;;;;;;;2.15;1.95;;;2.20;99.90;;;;;;5054298;28;20507;-89
2023/01/24 01:18:00;;;;;;;0.65;0.57;;;2.70;99.90;;;;;;5053603;28;20049;-86
2023/01/24 01:20:26;;;;;;;1.80;1.70;;;2.20;99.90;;;;;;5054229;28;20048;-86
2023/01/24 01:22:52;;;;;;;0.30;0.30;;;2.20;99.90;;;;;;5054117;28;20049;-86
2023/01/24 01:25:18;;;;;;;0.03;0.03;;;2.10;99.90;;;;;;5053648;28;20037;-86
2023/01/24 01:27:43;;;;;;;0.93;0.55;;;2.20;99.90;;;;;;5053782;28;20036;-87
2023/01/24 01:30:09;;;;;;;0.50;0.50;;;2.20;99.90;;;;;;5054286;28;20033;-85
2023/01/24 01:32:35;;;;;;;0.17;0.17;;;2.10;99.90;;;;;;5054052;28;20383;-86
2023/01/24 01:35:01;;;;;;;3.05;1.67;;;2.20;99.90;;;;;;5053500;28;20040;-86
2023/01/24 01:37:26;;;;;;;4.05;2.45;;;2.20;99.90;;;;;;5055997;28;20128;-86
2023/01/24 01:39:52;;;;;;;1.17;1.08;;;2.20;99.90;;;;;;5057750;28;20045;-86
2023/01/24 01:42:17;;;;;;;0.82;0.82;;;2.20;99.90;;;;;;5058106;28;20049;-86
2023/01/24 01:44:47;;;;;;;1.42;1.13;;;2.20;99.90;;;;;;5057761;28;20037;-86
2023/01/24 01:47:33;;;;;;;1.25;1.20;;;2.20;99.90;;;;;;5057478;28;20053;-86
2023/01/24 01:50:28;;;;;;;1.53;1.43;;;2.20;99.90;;;;;;5057779;28;20116;-86
2023/01/24 01:52:54;;;;;;;1.98;0.75;;;2.20;99.90;;;;;;5057760;28;20629;-86
2023/01/24 01:55:23;;;;;;;0.75;0.75;;;2.20;99.90;;;;;;5057270;28;20052;-86
2023/01/24 01:57:50;;;;;;;1.20;1.00;;;2.20;99.90;;;;;;5057374;28;20473;-86
2023/01/24 02:00:19;;;;;;;0.40;0.40;;;2.20;99.90;;;;;;5057170;28;20048;-86
2023/01/24 02:03:37;;;;;;;0.43;0.43;;;2.20;99.90;;;;;;5057492;28;20049;-86
2023/01/24 02:05:43;;;;;;;0.63;0.63;;;2.10;99.90;;;;;;5057593;28;20045;-86
2023/01/24 02:08:12;;;;;;;0.40;0.40;;;2.20;99.90;;;;;;5057395;28;20041;-86
2023/01/24 02:13:23;;;;;;;0.73;0.73;;;2.20;99.90;;;;;;5056979;28;20110;-86
2023/01/24 02:16:05;;;;;;;1.02;0.93;;;2.10;99.90;;;;;;5056015;28;20049;-87
2023/01/24 02:18:39;;;;;;;0.80;0.80;;;2.10;99.90;;;;;;5057445;28;20045;-85
2023/01/24 02:21:09;;;;;;;0.63;0.63;;;2.10;99.90;;;;;;5056087;28;20052;-86
2023/01/24 02:24:03;;;;;;;0.35;0.35;;;2.10;99.90;;;;;;5056929;28;20032;-86
2023/01/24 02:26:29;;;;;;;0.65;0.65;;;2.10;99.90;;;;;;5056785;28;20068;-86
2023/01/24 02:29:05;;;;;;;0.47;0.47;;;2.10;99.90;;;;;;5056878;28;20444;-86
2023/01/24 02:31:58;;;;;;;0.73;0.73;;;2.10;99.90;;;;;;5056592;28;20128;-86
2023/01/24 02:34:25;;;;;;;0.20;0.20;;;2.10;99.90;;;;;;5056729;28;20045;-85
2023/01/24 02:36:56;;;;;;;2.58;1.08;;;2.10;99.90;;;;;;5054996;28;20053;-86
2023/01/24 02:39:30;;;;;;;0.10;0.10;;;2.10;99.90;;;;;;5056776;28;20453;-86
2023/01/24 02:42:17;;;;;;;1.92;1.77;;;2.10;99.90;;;;;;5056566;28;20063;-86
2023/01/24 02:44:42;;;;;;;;;;;2.10;99.90;;;;;;5056781;28;20049;-85
2023/01/24 02:47:08;;;;;;;0.37;0.37;;;2.20;99.90;;;;;;5056008;28;20353;-86
2023/01/24 02:49:34;;;;;;;0.55;0.55;;;2.20;99.90;;;;;;5055461;28;20045;-86
2023/01/24 02:54:44;;;;;;;0.63;0.40;;;2.20;99.90;;;;;;5056425;28;20055;-86
2023/01/24 02:59:54;;;;;;;1.13;0.93;;;2.10;99.90;;;;;;5054833;28;20052;-86
2023/01/24 03:02:19;;;;;;;0.55;0.55;;;2.20;99.90;;;;;;5055704;28;20041;-86
2023/01/24 03:04:45;;;;;;;0.55;0.50;;;2.10;99.90;;;;;;5056135;28;20473;-86
2023/01/24 03:07:10;;;;;;;1.88;1.30;;;2.10;99.90;;;;;;5055732;28;20172;-86
2023/01/24 03:09:38;;;;;;;0.17;0.17;;;2.10;99.90;;;;;;5056148;28;20068;-86
2023/01/24 03:36:49;;;;;;;1.25;1.15;;;2.30;99.90;;;;;;5055347;28;20545;-87
2023/01/24 03:41:59;;;;;;;0.47;0.47;;;2.30;99.90;;;;;;5055759;28;20135;-86
2023/01/24 03:44:25;;;;;;;2.55;0.90;;;2.40;99.90;;;;;;5055685;28;20076;-85
2023/01/24 03:46:50;;;;;;;0.90;0.90;;;2.40;99.90;;;;;;5055377;28;20053;-86
2023/01/24 03:49:19;;;;;;;0.30;0.30;;;2.40;99.90;;;;;;5055258;28;20121;-86
2023/01/24 03:54:28;;;;;;;0.35;0.35;;;2.40;99.90;;;;;;5055228;28;20056;-86
2023/01/24 03:56:54;;;;;;;1.85;1.70;;;2.50;99.90;;;;;;5055038;28;20395;-86
2023/01/24 03:59:19;;;;;;;3.70;1.52;;;2.40;99.90;;;;;;5054814;28;20045;-85
2023/01/24 04:01:45;;;;;;;0.22;0.22;;;2.40;99.90;;;;;;5054371;28;20072;-86
2023/01/24 04:04:11;;;;;;;2.20;1.60;;;2.40;99.90;;;;;;5054852;28;20056;-86
2023/01/24 04:06:37;;;;;;;2.45;2.22;;;2.40;93.00;;;;;;5054784;28;20124;-86
2023/01/24 04:09:03;;;;;;;1.67;1.58;;;2.50;1.00;;;;;;5054897;28;20431;-86
2023/01/24 04:11:28;;;;;;;0.80;0.68;;;2.40;29.40;;;;;;5054712;28;20044;-87
2023/01/24 04:13:54;;;;;;;1.02;0.88;;;2.50;97.60;;;;;;5053738;28;20036;-87
2023/01/24 04:16:20;;;;;;;0.35;0.35;;;2.50;13.60;;;;;;5055066;28;20037;-86
2023/01/24 04:18:45;;;;;;;1.40;1.02;;;2.50;99.90;;;;;;5054873;28;20099;-86
2023/01/24 04:21:11;;;;;;;1.52;1.23;;;2.50;99.90;;;;;;5055192;28;20037;-87
2023/01/24 04:23:39;;;;;;;5.78;1.55;;;2.50;1.00;;;;;;5054837;28;20483;-86
2023/01/24 04:26:04;;;;;;;0.75;0.75;;;2.50;99.90;;;;;;5054777;28;20497;-86
2023/01/24 04:28:31;;;;;;;1.15;1.05;;;2.50;99.90;;;;;;5054805;28;20037;-86
2023/01/24 04:30:58;;;;;;;0.35;0.35;;;2.50;99.90;;;;;;5054548;28;20102;-86
2023/01/24 04:33:24;;;;;;;0.40;0.40;;;2.60;1.00;;;;;;5054743;28;20475;-86
2023/01/24 04:35:49;;;;;;;3.05;1.30;;;2.60;1.00;;;;;;5054469;28;20073;-86
2023/01/24 04:38:15;;;;;;;1.20;1.10;;;2.70;99.90;;;;;;5054718;28;20041;-86
2023/01/24 04:40:40;;;;;;;0.52;0.52;;;2.70;99.90;;;;;;5054862;28;20091;-86
2023/01/24 04:43:06;;;;;;;5.20;1.40;;;2.70;1.00;;;;;;5054687;28;20094;-85
2023/01/24 04:45:32;;;;;;;4.55;1.15;;;2.70;99.90;;;;;;5052865;28;20500;-86
2023/01/24 04:47:57;;;;;;;1.83;1.67;;;2.60;99.90;;;;;;5053870;28;20076;-87
2023/01/24 04:50:23;;;;;;;1.13;1.05;;;2.60;1.00;;;;;;5054572;28;20040;-86
2023/01/24 04:52:49;;;;;;;0.30;0.30;;;2.60;99.90;;;;;;5054327;28;20040;-85
2023/01/24 04:55:14;;;;;;;4.85;1.15;;;2.70;99.90;;;;;;5054526;28;20044;-86
2023/01/24 04:57:40;;;;;;;1.40;1.13;;;2.70;99.90;;;;;;5054363;28;20041;-87
2023/01/24 05:00:08;;;;;;;1.00;0.93;;;2.70;1.00;;;;;;5051044;28;20508;-86
2023/01/24 05:02:35;;;;;;;1.77;1.67;;;2.60;99.90;;;;;;5054064;28;20059;-87
2023/01/24 05:05:00;;;;;;;1.63;1.00;;;2.60;99.90;;;;;;5054268;28;20053;-87
2023/01/24 05:07:26;;;;;;;1.55;0.65;;;2.60;1.00;;;;;;5055202;28;20072;-86
2023/01/24 05:09:52;;;;;;;3.00;0.98;;;2.60;99.90;;;;;;5055377;28;20041;-86
2023/01/24 05:12:18;;;;;;;0.32;0.32;;;2.60;1.00;;;;;;5053935;28;20429;-86
2023/01/24 05:14:43;;;;;;;0.68;0.68;;;2.60;99.90;;;;;;5055251;28;20041;-85
2023/01/24 05:17:09;;;;;;;0.28;0.28;;;2.60;1.00;;;;;;5045337;28;20037;-86
2023/01/24 05:19:35;;;;;;;1.60;1.50;;;2.60;99.90;;;;;;5053724;28;20505;-85
2023/01/24 05:22:00;;;;;;;0.98;0.98;;;2.60;13.70;;;;;;5055281;28;20050;-86
2023/01/24 05:24:26;;;;;;;0.80;0.80;;;2.60;1.00;;;;;;5055666;28;20041;-86
2023/01/24 05:26:51;;;;;;;1.90;0.90;;;2.60;99.90;;;;;;5054921;28;20040;-87
2023/01/24 05:29:17;;;;;;;1.45;0.88;;;3.50;95.20;;;;;;5054561;28;20037;-86
2023/01/24 05:31:43;;;;;;;1.38;1.27;;;2.60;9.00;;;;;;5054379;28;20106;-86
2023/01/24 05:34:08;;;;;;;1.02;0.95;;;2.60;99.90;;;;;;5053439;28;20048;-86
2023/01/24 05:36:34;;;;;;;1.25;1.15;;;2.60;99.90;;;;;;5054589;28;20041;-86
2023/01/24 05:39:00;;;;;;;2.55;0.80;;;2.60;99.90;;;;;;5054634;28;20051;-86
2023/01/24 05:41:26;;;;;;;1.40;1.30;;;2.60;1.00;;;;;;5053476;28;20114;-86
2023/01/24 05:43:51;;;;;;;1.42;1.05;;;2.50;99.90;;;;;;5054453;28;20116;-86
2023/01/24 05:46:22;;;;;;;2.60;1.70;;;2.60;99.90;;;;;;5049533;28;20057;-86
2023/01/24 05:48:48;;;;;;;0.73;0.73;;;2.60;99.90;;;;;;5043023;28;20045;-86
2023/01/24 05:51:17;;;;;;;0.75;0.70;;;2.50;99.90;;;;;;5049822;28;20041;-85
2023/01/24 05:53:43;;;;;;;0.30;0.30;;;3.10;1.00;;;;;;5042047;28;20063;-87
2023/01/24 05:56:14;;;;;;;0.32;0.32;;;2.50;99.90;;;;;;5045680;28;20033;-86
2023/01/24 05:58:42;;;;;;;1.08;0.98;;;2.50;99.90;;;;;;5046157;28;20488;-86
2023/01/24 06:01:18;;;;;;;0.82;0.82;;;2.50;1.00;;;;;;5058608;28;20037;-87
2023/01/24 06:03:47;;;;;;;1.25;1.15;;;2.50;99.90;;;;;;5039582;28;20049;-86
2023/01/24 06:06:14;;;;;;;1.85;1.27;;;2.50;1.00;;;;;;5043017;28;20041;-86
2023/01/24 06:08:40;;;;;;;3.90;1.35;;;2.50;1.00;;;;;;5042602;28;20076;-87
2023/01/24 06:11:12;;;;;;;0.75;0.75;;;2.40;1.00;;;;;;5043469;28;20569;-86
2023/01/24 06:13:37;;;;;;;1.95;1.85;;;2.40;99.90;;;;;;5045120;28;20052;-87
2023/01/24 06:16:05;;;;;;;0.93;0.93;;;2.40;86.00;;;;;;5038831;28;20046;-86
2023/01/24 06:18:32;;;;;;;0.30;0.30;;;2.40;16.70;;;;;;5043708;28;20406;-86
2023/01/24 06:20:58;;;;;;;2.83;1.67;;;2.40;99.90;;;;;;5052643;28;20049;-87
2023/01/24 06:23:26;;;;;;;2.70;1.87;;;2.40;99.90;;;;;;5046156;28;20380;-86
2023/01/24 06:25:52;;;;;;;0.73;0.45;;;2.40;99.90;;;;;;5048439;28;20106;-87
2023/01/24 06:28:18;;;;;;;0.08;0.08;;;2.40;99.90;;;;;;5054734;28;20037;-86
2023/01/24 06:30:50;;;;;;;1.83;1.70;;;2.40;99.90;;;;;;5052450;28;20041;-86
2023/01/24 06:33:44;;;;;;;7.33;2.20;;;2.40;1.00;;;;;;5045872;28;20052;-87
2023/01/24 06:36:37;;;;;;;2.38;1.67;;;2.40;99.90;;;;;;5048297;28;20048;-86
2023/01/24 06:39:03;;;;;;;1.30;0.70;;;2.50;34.10;;;;;;5044720;28;20069;-87
2023/01/24 06:41:29;;;;;;;1.75;1.40;;;2.50;1.00;;;;;;5043411;28;20479;-86
2023/01/24 06:43:55;;;;;;;1.73;1.58;;;2.50;38.70;;;;;;5047678;28;20453;-87
2023/01/24 06:46:20;;;;;;;1.67;1.05;;;2.50;99.90;;;;;;5044369;28;20053;-86
2023/01/24 06:48:46;;;;;;;0.80;0.80;;;2.50;1.00;;;;;;5042639;28;20061;-86
2023/01/24 06:51:15;;;;;;;0.65;0.65;;;2.40;99.90;;;;;;5044266;28;20045;-87
2023/01/24 06:53:41;;;;;;;3.60;1.50;;;2.40;13.40;;;;;;5043184;28;20053;-86
2023/01/24 06:56:08;;;;;;;1.30;1.10;;;2.40;1.00;;;;;;5045372;28;20032;-86
2023/01/24 06:58:34;;;;;;;0.45;0.45;;;2.30;99.90;;;;;;5053070;28;20117;-86
2023/01/24 07:00:59;;;;;;;1.70;1.60;;;2.40;99.90;;;;;;5045522;28;20578;-86
2023/01/24 07:03:25;;;;;;;1.48;1.38;;;2.30;37.90;;;;;;5049861;28;20037;-86
2023/01/24 07:05:50;;;;;;;1.25;0.60;;;2.30;99.90;;;;;;5043005;28;20499;-86
2023/01/24 07:08:17;;;;;;;1.15;1.05;;;2.40;5.50;;;;;;5043887;28;20040;-86
2023/01/24 07:10:43;;;;;;;0.85;0.85;;;2.30;99.90;;;;;;5040265;28;20475;-87
2023/01/24 07:13:08;;;;;;;0.28;0.28;;;2.40;52.60;;;;;;5046737;28;20079;-87
2023/01/24 07:15:34;;;;;;;0.57;0.57;;;2.30;99.90;;;;;;5044561;28;20049;-86
2023/01/24 07:18:07;;;;;;;0.80;0.80;;;2.40;99.90;;;;;;5043970;28;20042;-87
2023/01/24 07:20:33;;;;;;;0.10;0.10;;;2.40;31.40;;;;;;5049665;28;20037;-86
2023/01/24 07:22:59;;;;;;;0.57;0.47;;;2.40;70.10;;;;;;5039704;28;20037;-86
2023/01/24 07:25:26;;;;;;;0.43;0.43;;;2.40;1.00;;;;;;5049764;28;20044;-87
2023/01/24 07:27:52;;;;;;;0.10;0.10;;;2.30;99.90;;;;;;5054937;28;20048;-86
2023/01/24 07:30:18;;;;;;;0.75;0.75;;;2.40;99.90;;;;;;5053755;28;20041;-87
2023/01/24 07:32:44;;;;;;;0.00;0.00;;;2.40;1.00;;;;;;5052208;28;20041;-87
2023/01/24 07:35:10;;;;;;;2.47;1.58;;;2.40;96.00;;;;;;5038083;28;20062;-87
2023/01/24 07:37:35;;;;;;;1.08;1.00;;;2.30;99.90;;;;;;5032376;28;20557;-87
2023/01/24 07:40:02;;;;;;;0.57;0.57;;;2.50;1.00;;;;;;5032003;28;20124;-87
2023/01/24 07:42:27;;;;;;;2.20;1.50;;;2.60;99.90;;;;;;5031491;28;20502;-87
2023/01/24 07:45:02;;;;;;;0.50;0.50;;;2.40;99.90;;;;;;5031598;28;20053;-86
2023/01/24 07:47:27;;;;;;;0.60;0.60;;;2.40;1.00;;;;;;5031678;28;20111;-87
2023/01/24 07:49:53;;;;;;;0.47;0.45;;;2.40;99.90;;;;;;5036491;28;20068;-86
2023/01/24 07:52:19;;;;;;;1.98;1.25;;;2.40;1.00;;;;;;5050795;28;20552;-86
2023/01/24 07:54:44;;;;;;;1.10;1.00;;;2.40;1.00;;;;;;5049871;28;20055;-86
2023/01/24 07:57:10;;;;;;;0.75;0.75;;;2.40;97.80;;;;;;5051047;28;20045;-87
2023/01/24 07:59:35;;;;;;;0.73;0.73;;;2.40;97.40;;;;;;5051382;28;20502;-87
2023/01/24 08:02:01;;;;;;;0.77;0.77;;;2.40;99.90;;;;;;5049576;28;20041;-86
2023/01/24 08:04:26;;;;;;;0.32;0.32;;;3.10;99.90;;;;;;5039938;28;20037;-86
2023/01/24 08:09:36;;;;;;;0.82;0.80;;;2.40;99.90;;;;;;5043483;28;20060;-86
2023/01/24 08:12:02;;;;;;;0.10;0.10;;;2.40;23.20;;;;;;5044332;28;20052;-87
2023/01/24 08:14:27;;;;;;;1.27;1.17;;;2.40;86.50;;;;;;5039388;28;20466;-87
2023/01/24 08:16:53;;;;;;;0.68;0.55;;;2.40;13.60;;;;;;5038048;28;20076;-86
2023/01/24 08:19:18;;;;;;;1.20;0.87;;;2.40;99.90;;;;;;5043494;28;20136;-87
2023/01/24 08:21:44;;;;;;;0.53;0.53;;;2.40;99.90;;;;;;5040976;28;20041;-87
2023/01/24 08:24:09;;;;;;;0.10;0.10;;;2.40;99.90;;;;;;5043692;28;20284;-86
2023/01/24 08:26:35;;;;;;;0.82;0.82;;;2.40;99.90;;;;;;5041982;28;20121;-86
2023/01/24 08:29:01;;;;;;;0.87;0.57;;;2.50;99.90;;;;;;5040992;28;20049;-87
2023/01/24 08:31:26;;;;;;;0.28;0.28;;;2.40;99.90;;;;;;5039587;28;20542;-86
2023/01/24 08:33:52;;;;;;;0.77;0.77;;;2.50;99.90;;;;;;5043321;28;20046;-86
2023/01/24 08:36:22;;;;;;;1.38;1.27;;;2.50;99.90;;;;;;5040773;28;20102;-87
2023/01/24 08:38:47;;;;;;;0.75;0.75;;;2.50;99.90;;;;;;5030823;28;20088;-86
2023/01/24 08:41:13;;;;;;;0.50;0.50;;;2.50;1.00;;;;;;5041491;28;20088;-86
2023/01/24 08:43:38;;;;;;;0.63;0.63;;;2.40;1.00;;;;;;5050175;28;20455;-86
2023/01/24 08:46:04;;;;;;;10.07;1.80;;;2.40;99.90;;;;;;5049581;28;20049;-86
2023/01/24 08:48:30;;;;;;;1.10;1.02;;;2.40;99.90;;;;;;5050282;28;20049;-86
2023/01/24 08:50:55;;;;;;;0.60;0.60;;;2.40;99.90;;;;;;5048407;28;20044;-86
2023/01/24 08:53:21;;;;;;;1.10;1.00;;;2.50;99.90;;;;;;5049806;28;20040;-86
2023/01/24 08:55:50;;;;;;;8.65;1.70;;;2.50;1.00;;;;;;5050119;28;20048;-86
2023/01/24 08:58:16;;;;;;;0.82;0.82;;;2.50;1.00;;;;;;5049916;28;20529;-86
2023/01/24 09:00:42;;;;;;;1.85;1.73;;;2.50;99.90;;;;;;5046882;28;20053;-86
2023/01/24 09:03:11;;;;;;;1.35;1.13;;;2.50;99.90;;;;;;5048707;28;20041;-86
2023/01/24 09:05:38;;;;;;;2.47;1.65;;;2.50;86.50;;;;;;5042186;28;20048;-86
2023/01/24 09:08:04;;;;;;;0.88;0.65;;;2.60;58.60;;;;;;5037323;28;20514;-87
2023/01/24 09:10:30;;;;;;;0.80;0.70;;;2.60;1.00;;;;;;5039048;28;20514;-86
2023/01/24 09:12:55;;;;;;;0.73;0.68;;;2.60;99.90;;;;;;5041045;28;20079;-87
2023/01/24 09:15:21;;;;;;;3.55;0.75;;;2.60;70.30;;;;;;5040090;28;20037;-87
2023/01/24 09:17:46;;;;;;;0.63;0.63;;;2.60;1.00;;;;;;5039266;28;20068;-87
2023/01/24 09:20:12;;;;;;;7.35;2.10;;;2.60;99.90;;;;;;5039494;28;20462;-86
2023/01/24 09:22:38;;;;;;;0.52;0.52;;;2.60;99.90;;;;;;5041571;28;20049;-86
2023/01/24 09:25:03;;;;;;;2.50;1.58;;;2.70;1.00;;;;;;5037370;28;20076;-87
2023/01/24 09:27:29;;;;;;;1.57;1.47;;;2.60;99.90;;;;;;5042005;28;20067;-86
2023/01/24 09:29:55;;;;;;;0.25;0.25;;;2.60;99.90;;;;;;5036011;28;20045;-86
2023/01/24 09:32:20;;;;;;;3.75;2.42;;;2.70;99.90;;;;;;5048492;28;20494;-86
2023/01/24 09:34:47;;;;;;;11.27;3.20;;;2.70;1.00;;;;;;5040697;28;20068;-87
2023/01/24 09:37:20;;;;;;;1.83;1.10;;;2.70;99.90;;;;;;5048202;28;20449;-86
2023/01/24 09:39:46;;;;;;;3.95;3.00;;;2.70;99.90;;;;;;5049560;28;20049;-86
2023/01/24 09:42:41;;;;;;;4.03;1.88;;;2.70;66.80;;;;;;5049769;28;20040;-86
2023/01/24 09:45:25;;;;;;;2.08;1.75;;;2.70;99.90;;;;;;5031011;28;20120;-86
2023/01/24 09:47:57;;;;;;;0.85;0.85;;;2.70;99.90;;;;;;5033285;28;20439;-86
2023/01/24 09:50:26;;;;;;;0.30;0.30;;;2.70;99.90;;;;;;5033248;28;20081;-86
2023/01/24 09:52:55;;;;;;;0.75;0.75;;;2.70;99.90;;;;;;5033109;28;20057;-86
2023/01/24 09:55:32;;;;;;;1.02;0.80;;;2.70;99.90;;;;;;5029327;28;20057;-86
2023/01/24 09:58:04;;;;;;;;;;;2.80;99.90;;;;;;5031490;28;20483;-86
2023/01/24 10:00:38;;;;;;;1.20;1.10;;;2.80;99.90;;;;;;5047386;28;20015;-86
2023/01/24 10:03:18;;;;;;;1.75;1.10;;;2.80;1.00;;;;;;5052751;28;20045;-87
2023/01/24 10:05:51;;;;;;;0.70;0.70;;;2.80;99.90;;;;;;5046698;28;20053;-87
2023/01/24 10:08:39;;;;;;;0.60;0.60;;;2.90;99.90;;;;;;5058779;28;20403;-86
2023/01/24 10:11:14;;;;;;;1.23;1.13;;;2.90;99.90;;;;;;5035445;28;20091;-87
2023/01/24 10:14:16;;;;;;;0.10;0.10;;;2.80;1.00;;;;;;5039858;28;20083;-87
2023/01/24 10:17:03;;;;;;;0.32;0.32;;;2.90;99.90;;;;;;5044081;28;20148;-87
2023/01/24 10:19:39;;;;;;;1.35;1.10;;;2.80;90.90;;;;;;5041643;28;20045;-87
2023/01/24 10:22:11;;;;;;;;;;;2.80;96.10;;;;;;5044790;28;20041;-87
2023/01/24 10:24:41;;;;;;;1.63;1.05;;;2.80;99.90;;;;;;5045535;28;19920;-87
2023/01/24 10:27:29;;;;;;;2.53;2.17;;;2.80;99.90;;;;;;5052164;28;20080;-86
2023/01/24 10:29:59;;;;;;;1.67;1.00;;;3.80;99.90;;;;;;5052749;28;20045;-86
2023/01/24 10:32:33;;;;;;;0.30;0.30;;;2.90;1.00;;;;;;5052756;28;20033;-87
2023/01/24 10:35:10;;;;;;;1.02;0.98;;;2.90;1.00;;;;;;5052519;28;20056;-86
2023/01/24 10:37:39;;;;;;;0.65;0.65;;;2.90;99.90;;;;;;5052789;28;20116;-87
2023/01/24 10:40:14;;;;;;;1.27;1.17;;;2.90;99.90;;;;;;5052859;28;20049;-87
2023/01/24 10:42:40;;;;;;;0.50;0.50;;;3.00;99.90;;;;;;5052356;28;20542;-87
2023/01/24 10:45:32;;;;;;;2.28;1.58;;;3.00;1.00;;;;;;5051059;28;20128;-87
2023/01/24 10:48:09;;;;;;;1.23;1.13;;;3.00;99.90;;;;;;5047032;28;20146;-87
2023/01/24 10:50:41;;;;;;;0.15;0.15;;;3.10;99.90;;;;;;5042629;28;20056;-87
2023/01/24 10:53:24;;;;;;;1.83;1.70;;;3.20;99.90;;;;;;5043637;28;20044;-86
2023/01/24 10:55:59;;;;;;;1.70;1.58;;;3.20;1.00;;;;;;5041991;28;20120;-87
2023/01/24 10:58:32;;;;;;;2.35;1.67;;;3.30;99.90;;;;;;5034108;28;20037;-87
2023/01/24 11:01:03;;;;;;;1.65;1.27;;;3.40;1.00;;;;;;5046627;28;20047;-86
2023/01/24 11:03:32;;;;;;;0.77;0.77;;;3.30;99.90;;;;;;5052127;28;20055;-87
2023/01/24 11:05:58;;;;;;;1.88;1.08;;;3.30;1.00;;;;;;5052022;28;20040;-87
2023/01/24 11:08:26;;;;;;;1.60;1.23;;;3.20;80.30;;;;;;5035373;28;20049;-87
2023/01/24 11:10:58;;;;;;;19.42;1.35;;;3.20;99.90;;;;;;5044821;28;20122;-87
2023/01/24 11:13:39;;;;;;;1.55;1.25;;;3.20;99.90;;;;;;5049066;28;20037;-87
2023/01/24 11:16:15;;;;;;;1.45;1.35;;;3.20;99.90;;;;;;5037677;28;20050;-87
2023/01/24 11:19:02;;;;;;;2.28;1.00;;;3.20;99.90;;;;;;5041136;28;20106;-87
2023/01/24 11:21:29;;;;;;;0.57;0.57;;;3.20;1.00;;;;;;5041793;28;20495;-87
2023/01/24 11:24:01;;;;;;;1.05;0.95;;;3.30;99.90;;;;;;5049129;28;20123;-87
2023/01/24 11:26:29;;;;;;;0.75;0.75;;;3.40;99.90;;;;;;5047367;28;20194;-87
2023/01/24 11:29:00;;;;;;;0.52;0.52;;;3.40;55.00;;;;;;5043263;28;20041;-87
2023/01/24 11:31:42;;;;;;;1.42;1.15;;;3.30;99.90;;;;;;5044658;28;20040;-87
2023/01/24 11:34:19;;;;;;;2.13;1.92;;;3.20;99.90;;;;;;5049651;28;20059;-87
2023/01/24 11:37:04;;;;;;;0.20;0.20;;;3.30;76.80;;;;;;5050171;28;20064;-87
2023/01/24 11:39:49;;;;;;;0.88;0.75;;;3.30;1.00;;;;;;5042883;28;20091;-87
2023/01/24 11:42:19;;;;;;;1.40;1.30;;;3.20;56.00;;;;;;5039761;28;20103;-87
2023/01/24 11:45:22;;;;;;;1.40;1.30;;;3.10;99.90;;;;;;5049092;28;20041;-87
2023/01/24 11:48:11;;;;;;;2.77;2.30;;;3.20;99.90;;;;;;5054516;28;20049;-87
2023/01/24 11:50:42;;;;;;;1.95;1.70;;;3.20;12.80;;;;;;5057807;28;20040;-86
2023/01/24 11:53:26;;;;;;;0.30;0.30;;;3.30;99.90;;;;;;5058255;28;20069;-86
2023/01/24 11:56:08;;;;;;;0.10;0.10;;;3.30;99.90;;;;;;5056907;28;20084;-86
2023/01/24 11:59:00;;;;;;;2.15;1.95;;;3.30;1.00;;;;;;5059195;28;20037;-87
2023/01/24 12:01:58;;;;;;;0.45;0.45;;;3.30;99.90;;;;;;5042881;28;20499;-87
2023/01/24 12:04:47;;;;;;;1.13;1.08;;;3.30;53.30;;;;;;5042192;28;20045;-87
2023/01/24 12:07:27;;;;;;;0.32;0.32;;;3.40;1.00;;;;;;5046771;28;20064;-86
2023/01/24 12:10:16;;;;;;;2.58;2.03;;;3.30;99.90;;;;;;5041783;28;20135;-87
2023/01/24 12:12:48;;;;;;;1.70;1.55;;;3.30;1.00;;;;;;5045652;28;20052;-87
2023/01/24 12:15:30;;;;;;;0.88;0.88;;;3.30;5.30;;;;;;5038128;28;20487;-87
2023/01/24 12:18:19;;;;;;;0.73;0.70;;;3.30;19.10;;;;;;5040974;28;20068;-86
2023/01/24 12:20:44;;;;;;;0.57;0.55;;;3.20;99.90;;;;;;5045391;28;20049;-87
2023/01/24 12:23:27;;;;;;;2.22;1.33;;;3.20;1.00;;;;;;5046622;28;20041;-87
2023/01/24 12:25:56;;;;;;;1.95;1.77;;;3.20;99.90;;;;;;5042181;28;20033;-86
2023/01/24 12:28:35;;;;;;;2.35;1.92;;;3.20;99.90;;;;;;5042431;28;20033;-87
2023/01/24 12:31:03;;;;;;;1.38;1.25;;;3.20;86.70;;;;;;5049576;28;20045;-87
2023/01/24 12:33:56;;;;;;;1.27;1.17;;;3.10;99.90;;;;;;5041592;28;20048;-87
2023/01/24 12:36:43;;;;;;;1.08;0.88;;;3.10;1.00;;;;;;5046842;28;20045;-87
2023/01/24 12:39:20;;;;;;;1.40;1.30;;;3.10;99.90;;;;;;5045821;28;20038;-87
2023/01/24 12:41:49;;;;;;;;;;;3.10;99.90;;;;;;5043607;28;20079;-86
2023/01/24 12:44:30;;;;;;;0.55;0.55;;;3.10;99.90;;;;;;5073665;28;20002;-87
2023/01/24 12:47:28;;;;;;;3.85;1.27;;;3.20;1.00;;;;;;5052469;28;20061;-87
2023/01/24 12:50:21;;;;;;;1.70;1.40;;;3.20;1.00;;;;;;5056205;28;20102;-87
2023/01/24 12:53:12;;;;;;;1.50;1.40;;;3.20;1.00;;;;;;5053407;28;20131;-87
2023/01/24 12:56:04;;;;;;;1.10;1.02;;;3.20;99.90;;;;;;5055052;28;20045;-87
2023/01/24 12:58:37;;;;;;;0.77;0.77;;;3.10;99.90;;;;;;5050606;28;20056;-86
2023/01/24 13:01:21;;;;;;;2.15;1.95;;;3.10;99.90;;;;;;5068955;28;20060;-86
2023/01/24 13:04:12;;;;;;;1.85;1.67;;;3.10;99.90;;;;;;5054279;28;20041;-86
2023/01/24 13:06:43;;;;;;;1.65;1.55;;;3.10;1.00;;;;;;5052253;28;20052;-86
2023/01/24 13:09:17;;;;;;;1.15;1.08;;;3.00;1.00;;;;;;5052721;28;20045;-86
2023/01/24 13:11:45;;;;;;;1.55;1.13;;;3.00;1.00;;;;;;5051971;28;20490;-86
2023/01/24 13:14:23;;;;;;;1.63;1.40;;;3.00;99.90;;;;;;5053369;28;20037;-86
2023/01/24 13:17:03;;;;;;;1.17;1.07;;;3.00;99.90;;;;;;5053041;28;20064;-87
2023/01/24 13:19:55;;;;;;;4.13;1.10;;;2.80;83.90;;;;;;5053047;28;20527;-87
2023/01/24 13:22:27;;;;;;;0.40;0.40;;;2.80;99.90;;;;;;5052369;28;20049;-86
2023/01/24 13:25:16;;;;;;;0.47;0.47;;;2.90;1.00;;;;;;5053277;28;20080;-86
2023/01/24 13:27:42;;;;;;;0.77;0.77;;;2.90;1.00;;;;;;5052224;28;20107;-87
2023/01/24 13:30:29;;;;;;;0.20;0.20;;;2.90;99.90;;;;;;5051730;28;20080;-86
2023/01/24 13:32:57;;;;;;;;;;;3.00;99.90;;;;;;5052975;28;20106;-87
2023/01/24 13:35:25;;;;;;;0.38;0.38;;;3.00;99.90;;;;;;5057259;28;19920;-87
2023/01/24 13:38:03;;;;;;;0.50;0.50;;;3.00;99.90;;;;;;5055623;28;20049;-87
2023/01/24 13:40:36;;;;;;;2.13;1.30;;;2.90;1.00;;;;;;5072231;28;20052;-86
2023/01/24 13:43:36;;;;;;;1.75;1.65;;;2.90;99.90;;;;;;5057250;28;20060;-86
2023/01/24 13:46:03;;;;;;;1.08;1.00;;;2.90;16.40;;;;;;5056620;28;20045;-86
2023/01/24 13:48:40;;;;;;;0.50;0.47;;;3.20;99.90;;;;;;5056592;28;20530;-86
2023/01/24 13:51:20;;;;;;;0.93;0.75;;;2.90;1.00;;;;;;5055363;28;20088;-86
2023/01/24 13:53:58;;;;;;;0.45;0.43;;;2.90;99.90;;;;;;5056554;28;20087;-86
2023/01/24 13:56:24;;;;;;;1.77;0.75;;;2.90;1.00;;;;;;5056922;28;20052;-87
2023/01/24 13:58:54;;;;;;;0.80;0.80;;;2.80;99.90;;;;;;5056404;28;20405;-86
2023/01/24 14:01:21;;;;;;;0.15;0.15;;;2.80;88.00;;;;;;5056691;28;20037;-86